createdAt,value
2023-05-22T00:01:50.334Z,94972.06
2023-05-22T00:04:16.985Z,94970.84
2023-05-22T00:06:43.635Z,94976.63
2023-05-22T00:09:10.330Z,94975.38
2023-05-22T00:11:37.040Z,94972.97
2023-05-22T00:14:03.865Z,94974.09
2023-05-22T00:16:30.743Z,94970.09
2023-05-22T00:18:57.655Z,94967.69
2023-05-22T00:21:24.572Z,94972.72
2023-05-22T00:23:51.220Z,94975.00
2023-05-22T00:26:17.915Z,94976.13
2023-05-22T00:28:44.581Z,94981.94
2023-05-22T00:31:11.365Z,94979.88
2023-05-22T00:33:37.992Z,94982.19
2023-05-22T00:36:05.504Z,94984.44
2023-05-22T00:38:34.552Z,94983.97
2023-05-22T00:41:02.647Z,94979.59
2023-05-22T00:43:29.411Z,94977.56
2023-05-22T00:45:56.650Z,94976.72
2023-05-22T00:48:23.964Z,94978.97
2023-05-22T00:50:51.507Z,94972.63
2023-05-22T00:53:22.764Z,94968.25
2023-05-22T00:55:50.243Z,94977.97
2023-05-22T00:58:18.457Z,94970.84
2023-05-22T01:00:45.778Z,94971.09
2023-05-22T01:03:17.895Z,94964.88
2023-05-22T01:05:45.682Z,94964.78
2023-05-22T01:08:12.589Z,94966.34
2023-05-22T01:10:40.562Z,94960.38
2023-05-22T01:13:16.168Z,94970.38
2023-05-22T01:16:01.603Z,94969.63
2023-05-22T01:19:04.353Z,94969.13
2023-05-22T01:22:05.786Z,94981.19
2023-05-22T01:24:47.081Z,94989.00
2023-05-22T01:27:40.404Z,94986.56
2023-05-22T01:30:40.427Z,94992.78
2023-05-22T01:33:09.597Z,94992.78
2023-05-22T01:35:39.633Z,94980.56
2023-05-22T01:38:08.491Z,94991.53
2023-05-22T01:40:36.982Z,94990.34
2023-05-22T01:43:04.404Z,94993.44
2023-05-22T01:45:31.257Z,94992.63
2023-05-22T01:47:58.826Z,94994.59
2023-05-22T01:50:25.690Z,94987.91
2023-05-22T01:53:11.951Z,94985.53
2023-05-22T01:55:46.971Z,94986.69
2023-05-22T01:58:26.407Z,94991.72
2023-05-22T02:00:58.047Z,94993.66
2023-05-22T02:03:30.145Z,94999.13
2023-05-22T02:06:00.183Z,94994.84
2023-05-22T02:08:28.223Z,94999.50
2023-05-22T02:10:56.794Z,94999.06
2023-05-22T02:13:23.676Z,95004.13
2023-05-22T02:15:51.642Z,95000.94
2023-05-22T02:18:18.396Z,94998.97
2023-05-22T02:20:46.634Z,94996.13
2023-05-22T02:23:13.563Z,95003.16
2023-05-22T02:25:40.400Z,95000.31
2023-05-22T02:28:07.048Z,95005.28
2023-05-22T02:30:33.763Z,95006.00
2023-05-22T02:33:00.638Z,95011.41
2023-05-22T02:35:27.366Z,95019.53
2023-05-22T02:37:54.329Z,95015.50
2023-05-22T02:40:21.125Z,95021.25
2023-05-22T02:42:47.888Z,95012.94
2023-05-22T02:45:15.298Z,95014.00
2023-05-22T02:47:42.056Z,95022.50
2023-05-22T02:50:09.087Z,95015.38
2023-05-22T02:52:35.992Z,95020.75
2023-05-22T02:55:03.944Z,95013.25
2023-05-22T02:57:30.723Z,95017.50
2023-05-22T02:59:58.829Z,95016.50
2023-05-22T03:02:26.491Z,95017.78
2023-05-22T03:04:53.184Z,95015.78
2023-05-22T03:07:19.848Z,95022.75
2023-05-22T03:09:46.443Z,95019.56
2023-05-22T03:12:13.076Z,95020.28
2023-05-22T03:14:39.971Z,95019.06
2023-05-22T03:17:06.734Z,95023.31
2023-05-22T03:19:33.641Z,95018.97
2023-05-22T03:22:00.369Z,95024.81
2023-05-22T03:24:27.178Z,95028.69
2023-05-22T03:26:54.140Z,95025.16
2023-05-22T03:29:30.802Z,95021.19
2023-05-22T03:31:57.692Z,95015.28
2023-05-22T03:34:25.442Z,95022.72
2023-05-22T03:36:52.237Z,95014.88
2023-05-22T03:39:18.931Z,95021.47
2023-05-22T03:41:54.535Z,95019.91
2023-05-22T03:44:23.307Z,95018.31
2023-05-22T03:46:50.266Z,95020.59
2023-05-22T03:49:16.949Z,95020.59
2023-05-22T03:51:43.703Z,95025.25
2023-05-22T03:54:10.380Z,95022.53
2023-05-22T03:56:37.535Z,95026.50
2023-05-22T03:59:04.205Z,95036.31
2023-05-22T04:01:30.938Z,95034.78
2023-05-22T04:03:57.565Z,95042.63
2023-05-22T04:06:24.372Z,95042.28
2023-05-22T04:08:51.128Z,95052.84
2023-05-22T04:11:17.788Z,95050.13
2023-05-22T04:13:45.126Z,95049.41
2023-05-22T04:16:11.898Z,95047.81
2023-05-22T04:18:38.521Z,95049.06
2023-05-22T04:21:05.699Z,95041.63
2023-05-22T04:23:32.462Z,95045.25
2023-05-22T04:25:59.106Z,95044.53
2023-05-22T04:28:25.890Z,95040.38
2023-05-22T04:30:52.549Z,95046.47
2023-05-22T04:33:19.230Z,95042.78
2023-05-22T04:35:45.859Z,95040.72
2023-05-22T04:38:12.457Z,95049.22
2023-05-22T04:40:39.322Z,95041.28
2023-05-22T04:43:06.324Z,95047.78
2023-05-22T04:45:33.130Z,95055.06
2023-05-22T04:48:00.195Z,95049.72
2023-05-22T04:50:27.093Z,95052.25
2023-05-22T04:52:53.696Z,95051.22
2023-05-22T04:55:20.464Z,95063.47
2023-05-22T04:57:47.633Z,95063.16
2023-05-22T05:00:15.087Z,95056.22
2023-05-22T05:02:42.100Z,95060.59
2023-05-22T05:05:09.023Z,95055.59
2023-05-22T05:07:39.871Z,95059.63
2023-05-22T05:10:09.588Z,95065.59
2023-05-22T05:12:37.007Z,95059.38
2023-05-22T05:15:03.969Z,95064.19
2023-05-22T05:17:30.612Z,95061.13
2023-05-22T05:19:57.387Z,95060.06
2023-05-22T05:22:24.222Z,95067.19
2023-05-22T05:24:50.944Z,95061.75
2023-05-22T05:27:17.671Z,95067.78
2023-05-22T05:29:45.033Z,95060.03
2023-05-22T05:32:19.235Z,95063.28
2023-05-22T05:35:06.457Z,95062.66
2023-05-22T05:37:45.566Z,95062.03
2023-05-22T05:40:13.421Z,95062.16
2023-05-22T05:42:45.037Z,95063.91
2023-05-22T05:45:13.592Z,95060.09
2023-05-22T05:47:40.336Z,95054.78
2023-05-22T05:50:08.198Z,95056.47
2023-05-22T05:52:37.835Z,95059.34
2023-05-22T05:55:10.181Z,95052.00
2023-05-22T05:57:37.525Z,95059.94
2023-05-22T06:00:07.819Z,95063.22
2023-05-22T06:02:43.293Z,95057.03
2023-05-22T06:05:23.784Z,95064.22
2023-05-22T06:07:57.065Z,95061.56
2023-05-22T06:10:24.003Z,95053.81
2023-05-22T06:12:58.381Z,95057.44
2023-05-22T06:15:25.572Z,95061.44
2023-05-22T06:17:52.401Z,95061.53
2023-05-22T06:20:19.958Z,95065.53
2023-05-22T06:22:46.769Z,95055.75
2023-05-22T06:25:13.479Z,95064.47
2023-05-22T06:27:40.309Z,95058.66
2023-05-22T06:30:07.798Z,95055.94
2023-05-22T06:32:38.890Z,95063.09
2023-05-22T06:35:07.221Z,95063.91
2023-05-22T06:37:33.803Z,95072.22
2023-05-22T06:40:01.109Z,95066.72
2023-05-22T06:42:33.609Z,95061.66
2023-05-22T06:45:20.301Z,95072.31
2023-05-22T06:48:02.041Z,95058.97
2023-05-22T06:50:30.652Z,95073.97
2023-05-22T06:52:57.709Z,95064.91
2023-05-22T06:55:25.259Z,95063.75
2023-05-22T06:58:02.891Z,95073.22
2023-05-22T07:00:31.273Z,95066.97
2023-05-22T07:03:07.768Z,95068.53
2023-05-22T07:06:02.013Z,95067.75
2023-05-22T07:08:30.439Z,95073.28
2023-05-22T07:10:57.506Z,95076.44
2023-05-22T07:13:24.181Z,95077.25
2023-05-22T07:15:50.961Z,95083.56
2023-05-22T07:18:17.632Z,95083.16
2023-05-22T07:20:44.865Z,95082.38
2023-05-22T07:23:15.368Z,95085.94
2023-05-22T07:25:43.087Z,95093.41
2023-05-22T07:28:11.564Z,95086.31
2023-05-22T07:30:50.081Z,95080.81
2023-05-22T07:33:16.753Z,95080.41
2023-05-22T07:35:44.496Z,95079.22
2023-05-22T07:38:11.512Z,95079.63
2023-05-22T07:40:41.900Z,95080.81
2023-05-22T07:43:08.554Z,95074.88
2023-05-22T07:45:35.994Z,95081.19
2023-05-22T07:48:06.887Z,95089.88
2023-05-22T07:50:36.161Z,95085.50
2023-05-22T07:53:03.802Z,95081.94
2023-05-22T07:55:34.013Z,95083.09
2023-05-22T07:58:03.319Z,95078.34
2023-05-22T08:00:34.745Z,95074.78
2023-05-22T08:03:01.555Z,95073.59
2023-05-22T08:05:28.403Z,95077.13
2023-05-22T08:07:55.108Z,95071.16
2023-05-22T08:10:22.641Z,95063.66
2023-05-22T08:12:49.238Z,95060.50
2023-05-22T08:15:15.900Z,95065.22
2023-05-22T08:17:42.659Z,95066.00
2023-05-22T08:20:09.788Z,95060.44
2023-05-22T08:22:38.812Z,95068.69
2023-05-22T08:25:05.628Z,95061.59
2023-05-22T08:27:32.359Z,95065.13
2023-05-22T08:29:58.986Z,95059.97
2023-05-22T08:32:25.657Z,95067.44
2023-05-22T08:34:52.400Z,95063.47
2023-05-22T08:37:19.160Z,95063.03
2023-05-22T08:39:45.764Z,95061.06
2023-05-22T08:42:12.618Z,95054.34
2023-05-22T08:44:39.548Z,95054.31
2023-05-22T08:47:07.165Z,95061.00
2023-05-22T08:49:36.739Z,95059.00
2023-05-22T08:52:14.762Z,95056.16
2023-05-22T08:54:42.586Z,95054.97
2023-05-22T08:57:09.704Z,95049.00
2023-05-22T08:59:37.867Z,95048.94
2023-05-22T09:02:06.770Z,95046.13
2023-05-22T09:04:33.661Z,95048.81
2023-05-22T09:07:00.396Z,95045.16
2023-05-22T09:09:27.094Z,95046.31
2023-05-22T09:11:54.935Z,95048.63
2023-05-22T09:14:21.550Z,95048.97
2023-05-22T09:16:51.524Z,95049.66
2023-05-22T09:19:18.572Z,95045.25
2023-05-22T09:21:45.247Z,95042.50
2023-05-22T09:24:12.148Z,95042.91
2023-05-22T09:26:39.652Z,95048.00
2023-05-22T09:29:09.561Z,95051.50
2023-05-22T09:31:43.589Z,95035.63
2023-05-22T09:34:12.564Z,95040.72
2023-05-22T09:36:39.173Z,95041.06
2023-05-22T09:39:05.912Z,95036.25
2023-05-22T09:41:38.452Z,95045.28
2023-05-22T09:44:15.292Z,95040.84
2023-05-22T09:46:44.270Z,95042.31
2023-05-22T09:49:14.148Z,95040.66
2023-05-22T09:51:45.399Z,95037.44
2023-05-22T09:54:14.039Z,95045.66
2023-05-22T09:56:43.356Z,95045.97
2023-05-22T09:59:13.398Z,95047.50
2023-05-22T10:01:41.310Z,95044.97
2023-05-22T10:04:12.669Z,95041.91
2023-05-22T10:06:40.650Z,95040.88
2023-05-22T10:09:15.856Z,95050.22
2023-05-22T10:11:45.165Z,95041.00
2023-05-22T10:14:12.548Z,95041.28
2023-05-22T10:16:41.203Z,95038.84
2023-05-22T10:19:08.153Z,95039.16
2023-05-22T10:21:35.957Z,95043.84
2023-05-22T10:24:03.525Z,95033.25
2023-05-22T10:26:30.479Z,95035.03
2023-05-22T10:29:11.138Z,95034.56
2023-05-22T10:32:00.576Z,95031.72
2023-05-22T10:34:47.879Z,95031.06
2023-05-22T10:37:52.049Z,95032.63
2023-05-22T10:40:32.677Z,95025.31
2023-05-22T10:43:01.056Z,95031.59
2023-05-22T10:45:28.857Z,95034.59
2023-05-22T10:48:11.846Z,95022.69
2023-05-22T10:50:40.165Z,95020.16
2023-05-22T10:53:30.851Z,95023.72
2023-05-22T10:55:59.269Z,95018.09
2023-05-22T10:58:28.969Z,95019.09
2023-05-22T11:01:18.879Z,95015.03
2023-05-22T11:04:11.198Z,95019.63
2023-05-22T11:06:45.337Z,95019.81
2023-05-22T11:09:27.204Z,95011.34
2023-05-22T11:12:13.917Z,95004.19
2023-05-22T11:14:40.586Z,95006.53
2023-05-22T11:17:07.337Z,95003.34
2023-05-22T11:19:34.455Z,95004.06
2023-05-22T11:22:01.719Z,95002.25
2023-05-22T11:24:32.965Z,95006.25
2023-05-22T11:27:06.411Z,95010.50
2023-05-22T11:29:33.804Z,95010.09
2023-05-22T11:32:01.788Z,95009.69
2023-05-22T11:34:28.701Z,95004.50
2023-05-22T11:36:59.812Z,95004.66
2023-05-22T11:39:26.884Z,95005.81
2023-05-22T11:41:53.657Z,94995.81
2023-05-22T11:44:20.517Z,94992.09
2023-05-22T11:46:47.313Z,94992.44
2023-05-22T11:49:14.141Z,94988.88
2023-05-22T11:51:40.823Z,94993.22
2023-05-22T11:54:07.755Z,94990.97
2023-05-22T11:56:34.375Z,94990.53
2023-05-22T11:59:01.508Z,94981.66
2023-05-22T12:01:28.323Z,94974.81
2023-05-22T12:03:55.125Z,94986.03
2023-05-22T12:06:22.146Z,94987.00
2023-05-22T12:08:48.958Z,94984.63
2023-05-22T12:11:15.612Z,94978.63
2023-05-22T12:13:42.244Z,94983.22
2023-05-22T12:16:20.044Z,94979.56
2023-05-22T12:18:46.756Z,94984.78
2023-05-22T12:21:13.417Z,94980.19
2023-05-22T12:23:49.162Z,94978.72
2023-05-22T12:26:16.137Z,94983.41
2023-05-22T12:28:43.232Z,94973.47
2023-05-22T12:31:09.922Z,94968.06
2023-05-22T12:33:39.356Z,94967.09
2023-05-22T12:36:09.342Z,94969.59
2023-05-22T12:38:38.096Z,94960.47
2023-05-22T12:41:04.949Z,94964.97
2023-05-22T12:43:31.734Z,94961.72
2023-05-22T12:46:00.458Z,94955.56
2023-05-22T12:48:29.097Z,94961.56
2023-05-22T12:50:55.914Z,94959.44
2023-05-22T12:53:22.506Z,94957.03
2023-05-22T12:55:49.207Z,94955.69
2023-05-22T12:58:16.215Z,94950.22
2023-05-22T13:00:42.890Z,94944.88
2023-05-22T13:03:09.957Z,94957.69
2023-05-22T13:05:36.728Z,94945.31
2023-05-22T13:08:03.340Z,94948.88
2023-05-22T13:10:30.109Z,94944.19
2023-05-22T13:12:56.924Z,94939.06
2023-05-22T13:15:23.680Z,94941.28
2023-05-22T13:17:50.365Z,94945.22
2023-05-22T13:20:16.981Z,94944.00
2023-05-22T13:22:43.671Z,94943.44
2023-05-22T13:25:10.398Z,94939.34
2023-05-22T13:27:37.023Z,94934.19
2023-05-22T13:30:03.989Z,94936.00
2023-05-22T13:32:30.660Z,94935.31
2023-05-22T13:34:57.277Z,94939.34
2023-05-22T13:37:23.989Z,94931.75
2023-05-22T13:39:50.921Z,94931.88
2023-05-22T13:42:17.709Z,94942.44
2023-05-22T13:44:44.712Z,94945.22
2023-05-22T13:47:11.564Z,94927.69
2023-05-22T13:49:38.160Z,94937.19
2023-05-22T13:52:04.961Z,94937.19
2023-05-22T13:54:31.569Z,94928.56
2023-05-22T13:56:58.166Z,94929.03
2023-05-22T13:59:24.849Z,94920.31
2023-05-22T14:01:51.509Z,94925.56
2023-05-22T14:04:18.130Z,94918.97
2023-05-22T14:06:44.814Z,94919.06
2023-05-22T14:09:11.490Z,94912.16
2023-05-22T14:11:38.262Z,94917.94
2023-05-22T14:14:05.017Z,94913.16
2023-05-22T14:16:31.770Z,94908.66
2023-05-22T14:19:00.200Z,94921.66
2023-05-22T14:21:27.613Z,94916.13
2023-05-22T14:23:54.356Z,94921.47
2023-05-22T14:26:20.996Z,94913.28
2023-05-22T14:28:47.772Z,94915.50
2023-05-22T14:31:14.429Z,94912.47
2023-05-22T14:33:41.293Z,94917.31
2023-05-22T14:36:08.041Z,94912.44
2023-05-22T14:38:34.727Z,94914.19
2023-05-22T14:41:02.085Z,94914.88
2023-05-22T14:43:28.702Z,94921.81
2023-05-22T14:45:55.888Z,94918.91
2023-05-22T14:48:22.632Z,94930.47
2023-05-22T14:50:49.247Z,94930.00
2023-05-22T14:53:15.916Z,94927.97
2023-05-22T14:55:42.608Z,94918.78
2023-05-22T14:58:10.234Z,94925.78
2023-05-22T15:00:36.892Z,94923.44
2023-05-22T15:03:03.991Z,94923.13
2023-05-22T15:05:30.805Z,94931.56
2023-05-22T15:07:57.562Z,94929.72
2023-05-22T15:10:27.164Z,94954.97
2023-05-22T15:12:54.206Z,94937.84
2023-05-22T15:15:20.894Z,94937.56
2023-05-22T15:17:47.511Z,94951.09
2023-05-22T15:20:14.132Z,94943.16
2023-05-22T15:22:40.883Z,94946.69
2023-05-22T15:25:10.440Z,94950.06
2023-05-22T15:27:38.713Z,94945.41
2023-05-22T15:30:06.335Z,94945.56
2023-05-22T15:32:33.057Z,94948.97
2023-05-22T15:34:59.783Z,94947.97
2023-05-22T15:37:27.921Z,94940.19
2023-05-22T15:39:55.243Z,94943.41
2023-05-22T15:42:21.918Z,94945.28
2023-05-22T15:44:48.536Z,94937.44
2023-05-22T15:47:15.140Z,94936.34
2023-05-22T15:49:41.805Z,94934.59
2023-05-22T15:52:08.426Z,94930.84
2023-05-22T15:54:35.054Z,94927.41
2023-05-22T15:57:01.652Z,94917.84
2023-05-22T15:59:28.260Z,94910.72
2023-05-22T16:01:54.878Z,94907.66
2023-05-22T16:04:21.481Z,94905.47
2023-05-22T16:06:48.078Z,94903.84
2023-05-22T16:09:14.710Z,94900.69
2023-05-22T16:11:41.303Z,94899.59
2023-05-22T16:14:08.075Z,94899.28
2023-05-22T16:16:34.856Z,94902.13
2023-05-22T16:19:01.568Z,94897.00
2023-05-22T16:21:28.251Z,94905.59
2023-05-22T16:23:57.564Z,94904.34
2023-05-22T16:26:24.186Z,94903.53
2023-05-22T16:28:50.771Z,94902.56
2023-05-22T16:31:19.322Z,94906.13
2023-05-22T16:33:46.155Z,94906.56
2023-05-22T16:36:12.767Z,94909.03
2023-05-22T16:38:39.341Z,94906.88
2023-05-22T16:41:05.951Z,94904.13
2023-05-22T16:43:32.624Z,94892.66
2023-05-22T16:45:59.245Z,94892.22
2023-05-22T16:48:26.019Z,94892.97
2023-05-22T16:50:52.675Z,94896.13
2023-05-22T16:53:19.759Z,94888.72
2023-05-22T16:55:46.458Z,94890.47
2023-05-22T16:58:13.158Z,94889.78
2023-05-22T17:00:39.903Z,94891.06
2023-05-22T17:03:06.914Z,94894.50
2023-05-22T17:05:34.382Z,94891.97
2023-05-22T17:08:00.963Z,94883.31
2023-05-22T17:10:27.574Z,94876.31
2023-05-22T17:12:54.331Z,94887.47
2023-05-22T17:15:21.057Z,94881.94
2023-05-22T17:17:47.854Z,94877.88
2023-05-22T17:20:14.501Z,94885.53
2023-05-22T17:22:42.776Z,94875.53
2023-05-22T17:25:10.008Z,94878.56
2023-05-22T17:27:37.094Z,94886.41
2023-05-22T17:30:05.052Z,94880.22
2023-05-22T17:32:31.782Z,94883.31
2023-05-22T17:34:58.934Z,94888.47
2023-05-22T17:37:25.658Z,94883.78
2023-05-22T17:39:53.330Z,94890.22
2023-05-22T17:42:19.920Z,94891.66
2023-05-22T17:44:46.537Z,94889.34
2023-05-22T17:47:13.206Z,94887.88
2023-05-22T17:49:39.886Z,94886.53
2023-05-22T17:52:06.677Z,94900.44
2023-05-22T17:54:34.320Z,94897.97
2023-05-22T17:57:01.243Z,94902.66
2023-05-22T17:59:27.964Z,94898.09
2023-05-22T18:01:54.672Z,94896.78
2023-05-22T18:04:21.350Z,94894.81
2023-05-22T18:06:48.105Z,94904.00
2023-05-22T18:09:14.841Z,94902.41
2023-05-22T18:11:41.603Z,94914.28
2023-05-22T18:14:08.359Z,94911.84
2023-05-22T18:16:34.981Z,94916.50
2023-05-22T18:19:01.745Z,94908.69
2023-05-22T18:21:28.614Z,94918.75
2023-05-22T18:23:55.728Z,94919.59
2023-05-22T18:26:22.616Z,94917.19
2023-05-22T18:28:49.300Z,94923.00
2023-05-22T18:31:16.013Z,94924.81
2023-05-22T18:33:42.686Z,94925.38
2023-05-22T18:36:09.329Z,94926.66
2023-05-22T18:38:36.160Z,94933.13
2023-05-22T18:41:02.788Z,94942.31
2023-05-22T18:43:29.399Z,94946.69
2023-05-22T18:45:56.875Z,94951.88
2023-05-22T18:48:24.378Z,94962.59
2023-05-22T18:50:51.491Z,94960.56
2023-05-22T18:53:18.261Z,94960.13
2023-05-22T18:55:45.066Z,94960.44
2023-05-22T18:58:11.837Z,94962.41
2023-05-22T19:00:38.538Z,94967.41
2023-05-22T19:03:08.335Z,94972.47
2023-05-22T19:05:35.300Z,94977.03
2023-05-22T19:08:02.158Z,94970.53
2023-05-22T19:10:28.911Z,94972.34
2023-05-22T19:12:55.530Z,94984.75
2023-05-22T19:15:22.389Z,94980.97
2023-05-22T19:17:49.011Z,94989.41
2023-05-22T19:20:15.888Z,94988.78
2023-05-22T19:22:42.634Z,94985.75
2023-05-22T19:25:09.468Z,94997.75
2023-05-22T19:27:38.782Z,94988.72
2023-05-22T19:30:06.772Z,94994.78
2023-05-22T19:32:33.418Z,94994.88
2023-05-22T19:35:00.111Z,95006.03
2023-05-22T19:37:26.744Z,95003.72
2023-05-22T19:39:54.180Z,95003.00
2023-05-22T19:42:20.872Z,95006.25
2023-05-22T19:44:47.458Z,95009.06
2023-05-22T19:47:14.125Z,95018.97
2023-05-22T19:49:40.755Z,95015.88
2023-05-22T19:52:07.545Z,95019.06
2023-05-22T19:54:35.022Z,95022.25
2023-05-22T19:57:04.805Z,95028.59
2023-05-22T19:59:31.716Z,95023.50
2023-05-22T20:01:58.330Z,95032.59
2023-05-22T20:04:25.055Z,95039.34
2023-05-22T20:06:51.692Z,95045.31
2023-05-22T20:09:18.466Z,95045.34
2023-05-22T20:11:45.182Z,95042.22
2023-05-22T20:14:12.855Z,95032.75
2023-05-22T20:16:39.702Z,95039.09
2023-05-22T20:19:06.757Z,95043.09
2023-05-22T20:21:33.550Z,95039.53
2023-05-22T20:24:00.427Z,95036.81
2023-05-22T20:26:27.109Z,95047.88
2023-05-22T20:28:53.900Z,95057.00
2023-05-22T20:31:20.586Z,95053.47
2023-05-22T20:33:47.195Z,95052.69
2023-05-22T20:36:13.945Z,95067.72
2023-05-22T20:38:40.725Z,95068.13
2023-05-22T20:41:09.555Z,95071.31
2023-05-22T20:43:36.613Z,95068.16
2023-05-22T20:46:03.302Z,95068.59
2023-05-22T20:48:30.039Z,95072.53
2023-05-22T20:50:56.819Z,95077.66
2023-05-22T20:53:23.404Z,95073.72
2023-05-22T20:55:50.047Z,95067.00
2023-05-22T20:58:16.744Z,95077.63
2023-05-22T21:00:43.429Z,95078.81
2023-05-22T21:03:10.098Z,95070.94
2023-05-22T21:05:36.817Z,95062.66
2023-05-22T21:08:03.511Z,95056.72
2023-05-22T21:10:30.212Z,95045.72
2023-05-22T21:12:56.862Z,95061.88
2023-05-22T21:15:23.480Z,95056.31
2023-05-22T21:17:50.108Z,95058.31
2023-05-22T21:20:16.874Z,95059.09
2023-05-22T21:22:43.583Z,95057.50
2023-05-22T21:25:10.213Z,95052.00
2023-05-22T21:27:36.809Z,95052.78
2023-05-22T21:30:03.787Z,95055.94
2023-05-22T21:32:30.473Z,95051.19
2023-05-22T21:34:57.219Z,95052.38
2023-05-22T21:37:23.824Z,95052.34
2023-05-22T21:39:50.475Z,95054.28
2023-05-22T21:42:17.480Z,95049.53
2023-05-22T21:44:44.184Z,95044.41
2023-05-22T21:47:11.022Z,95045.97
2023-05-22T21:49:39.447Z,95044.78
2023-05-22T21:52:06.378Z,95048.69
2023-05-22T21:54:33.015Z,95041.59
2023-05-22T21:56:59.741Z,95048.25
2023-05-22T21:59:26.557Z,95050.22
2023-05-22T22:01:53.221Z,95043.13
2023-05-22T22:04:20.032Z,95051.38
2023-05-22T22:06:46.664Z,95055.28
2023-05-22T22:09:13.261Z,95050.13
2023-05-22T22:11:39.891Z,95046.22
2023-05-22T22:14:06.530Z,95053.25
2023-05-22T22:16:34.097Z,95052.88
2023-05-22T22:19:01.535Z,95050.88
2023-05-22T22:21:28.330Z,95051.28
2023-05-22T22:23:55.230Z,95051.66
2023-05-22T22:26:21.839Z,95060.25
2023-05-22T22:28:48.414Z,95046.06
2023-05-22T22:31:15.098Z,95052.72
2023-05-22T22:33:41.799Z,95057.81
2023-05-22T22:36:08.502Z,95064.06
2023-05-22T22:38:35.315Z,95056.53
2023-05-22T22:41:02.058Z,95056.91
2023-05-22T22:43:28.733Z,95059.63
2023-05-22T22:45:55.500Z,95068.25
2023-05-22T22:48:22.136Z,95059.94
2023-05-22T22:50:49.219Z,95064.66
2023-05-22T22:53:15.902Z,95064.97
2023-05-22T22:55:42.894Z,95070.91
2023-05-22T22:58:09.829Z,95069.28
2023-05-22T23:00:36.606Z,95058.66
2023-05-22T23:03:03.396Z,95062.16
2023-05-22T23:05:30.235Z,95070.81
2023-05-22T23:07:56.859Z,95070.38
2023-05-22T23:10:23.532Z,95069.19
2023-05-22T23:12:50.126Z,95073.09
2023-05-22T23:15:16.841Z,95066.03
2023-05-22T23:17:43.530Z,95068.34
2023-05-22T23:20:11.034Z,95065.22
2023-05-22T23:22:37.744Z,95063.63
2023-05-22T23:25:04.748Z,95061.63
2023-05-22T23:27:31.460Z,95064.38
2023-05-22T23:29:58.166Z,95070.69
2023-05-22T23:32:24.888Z,95069.09
2023-05-22T23:34:51.619Z,95076.56
2023-05-22T23:37:18.348Z,95076.47
2023-05-22T23:39:44.957Z,95070.19
2023-05-22T23:42:11.664Z,95083.16
2023-05-22T23:44:38.377Z,95075.28
2023-05-22T23:47:06.212Z,95072.13
2023-05-22T23:49:33.012Z,95074.44
2023-05-22T23:52:00.090Z,95068.19
2023-05-22T23:54:26.726Z,95071.69
2023-05-22T23:56:53.352Z,95071.28
2023-05-22T23:59:20.054Z,95074.41
